Main page
METAR-TAF:

METAR-TAF

Airports :

Sogndal Airport. Haukåsen

Sogndal, Norway

latitude: 61-09N, longitude: 007-08E, elevation: 49 m

Current weather observation

The report was made 58 minutes ago, at 22:20 UTC
Calm wind
Temperature 17°C
Humidity 63%
Pressure 1011 hPa
Visibility 10 km or more

METAR: ENSG 132220Z AUTO 00000KT 9999 SCT082/// 17/10 Q1011 RMK WIND 3806FT 10013KT

Time: 01:18 (23:18 UTC)

Forecast

The report was made 15 hours and 18 minutes ago, at 08:00 UTC
Forecast valid from 13 at 09 UTC to 13 at 15 UTC
Wind 5 kt from the East
Visibility 10 km or more
no clouds below 1500 m and no cumulonimbus

TAF: ENSG 130800Z 1309/1315 08005KT CAVOK

Weather observations and forecasts of more than 4000 airports (METAR and TAF reports).

The available stations are represented by yellow and red dots on the map.

Hover mouse over dot to see the name of the station.

Then click to see weather observations and forecasts.

To change the map : click on the green buttons with a black cross to zoom in, on the green button with a dash to zoom out, or on the green arrows for adjacent maps.


METAR-TAF: